Pagrindinis puslapis
METAR-TAF:

METAR-TAF

Oro uostai :

Tin City, Aliaska, Jungtinės Amerikos Valstijos

platuma: 65-34N, ilguma: 167-55W, Aukštis: 83 m

Dabartinis oras

Ataskaita buvo paskelbta 18 minutes, ne 21:55 UTC
Vėjas 7 kt iš Šiaurės/Šiaurės Rytų
Temperatūra 4°C
Drėgmė 87%
Slėgis 1000 hPa
Matomumas: 16.1 km
Mažai debesys ne aukštis 1400 ft
Su prošvaistėmis ne aukštis 2900 ft
Su prošvaistėmis ne aukštis 4200 ft

METAR: PATC 212155Z AUTO 03007KT 10SM FEW014 BKN029 BKN042 04/02 A2953 RMK AO2 SLP004 T00440017

Laikas: 14:13 (22:13 UTC)


TAF: trūkstamas

Orai ataskaitas ir orų prognozės (METAR, TAF).

turimą stotys yra geltonos ir raudonos taškus žemėlapyje.

Perkelti pele per norėdami pamatyti stoties vardą.

Tada spustelėkite, norėdami matyti oro stebėjimo ir prognozės.

Norėdami pakeisti žemėlapį: spustelėkite ant žalios mygtukų su juodo kryžiaus žemyn,; žalią mygtuką su brūkšneliu, jei norite nutolinti; arba žalių rodyklių gretimoms žemėlapius.


METAR-TAF: